KLDJ

Details ICAO KLDJ (LDJ)
Name LINDEN
Region United States
Timezone America/New_York (UTC-5.0)
Plans Departing 101
Arriving 77
Stats Elevation 23 ft / 7 m (AMSL)
Location 40.617500° -74.244600°
Runways 1
Magnetic Variation 12.683° W
Sunrise 2020-12-01 12:03:19 UTC / 2020-12-01 07:03:19 Local
Sunset 2020-12-01 21:32:05 UTC / 2020-12-01 16:32:05 Local
Advertisement - Login to hide

Runways

ID Width Length Bearing (true/mag) Surface Threshold Overrun Markings Lighting
09 98 ft / 30 m 4,131 ft / 1,259 m 75.60° / 88.28° ASPHALT 459 ft / 140 m 200 ft / 61 m APP EDGE THRESHOLD REIL-OMNI
27 98 ft / 30 m 4,131 ft / 1,259 m 255.61° / 268.29° ASPHALT 545 ft / 166 m 200 ft / 61 m APP EDGE THRESHOLD REIL-OMNI

Map

Weather


0- 5 10 15 20 25 30 35+ Temperature / °C

Clouds and Precipitation
Forecast for 2020-12-01 18:00 UTC. Updated 3 hours ago

Ground ~20,000 ft ~40,000 ft Winds

METAR

KLDJ 301835Z AUTO 17014G21KT 10SM OVC012 17/15 A2944 RMK AO2 T01650152

TAF

Not found

Frequencies

Departure 119.20 MHz NEW YORK DEP
Unicom 123.00 MHz CTAF/UNICOM
Approach 135.35 MHz NEW YORK APP
Departure 126.70 MHz NEW YORK DEP
Clearance 128.35 MHz NEWARK CLNC DEL
Warning: Do not use this data for real-world aviation or navigation. No guarantee of current accuracy is given.